sensor_id;sensor_type;location;lat;lon;timestamp;temperature;humidity
7317;DHT22;3699;51.462;6.696;2022-09-09T00:01:02;16.50;99.90
7317;DHT22;3699;51.462;6.696;2022-09-09T00:03:38;16.50;99.90
7317;DHT22;3699;51.462;6.696;2022-09-09T00:06:12;16.50;99.90
7317;DHT22;3699;51.462;6.696;2022-09-09T00:08:53;16.50;99.90
7317;DHT22;3699;51.462;6.696;2022-09-09T00:11:26;16.50;99.90
7317;DHT22;3699;51.462;6.696;2022-09-09T00:13:56;16.50;99.90
7317;DHT22;3699;51.462;6.696;2022-09-09T00:16:25;16.50;99.90
7317;DHT22;3699;51.462;6.696;2022-09-09T00:19:00;16.40;99.90
7317;DHT22;3699;51.462;6.696;2022-09-09T00:21:34;16.40;99.90
7317;DHT22;3699;51.462;6.696;2022-09-09T00:24:09;16.40;99.90
7317;DHT22;3699;51.462;6.696;2022-09-09T00:26:42;16.40;99.90
7317;DHT22;3699;51.462;6.696;2022-09-09T00:29:18;16.30;99.90
7317;DHT22;3699;51.462;6.696;2022-09-09T00:31:46;16.30;99.90
7317;DHT22;3699;51.462;6.696;2022-09-09T00:34:15;16.30;99.90
7317;DHT22;3699;51.462;6.696;2022-09-09T00:36:47;16.30;99.90
7317;DHT22;3699;51.462;6.696;2022-09-09T00:39:21;16.30;99.90
7317;DHT22;3699;51.462;6.696;2022-09-09T00:41:59;16.30;99.90
7317;DHT22;3699;51.462;6.696;2022-09-09T00:44:31;16.30;99.90
7317;DHT22;3699;51.462;6.696;2022-09-09T00:47:18;16.30;99.90
7317;DHT22;3699;51.462;6.696;2022-09-09T00:49:59;16.30;99.90
7317;DHT22;3699;51.462;6.696;2022-09-09T00:52:34;16.30;99.90
7317;DHT22;3699;51.462;6.696;2022-09-09T00:55:09;16.30;99.90
7317;DHT22;3699;51.462;6.696;2022-09-09T00:57:38;16.30;99.90
7317;DHT22;3699;51.462;6.696;2022-09-09T01:00:19;16.20;99.90
7317;DHT22;3699;51.462;6.696;2022-09-09T01:02:53;16.30;99.90
7317;DHT22;3699;51.462;6.696;2022-09-09T01:05:27;16.20;99.90
7317;DHT22;3699;51.462;6.696;2022-09-09T01:07:58;16.20;99.90
7317;DHT22;3699;51.462;6.696;2022-09-09T01:10:35;16.20;99.90
7317;DHT22;3699;51.462;6.696;2022-09-09T01:13:13;16.20;99.90
7317;DHT22;3699;51.462;6.696;2022-09-09T01:15:42;16.10;99.90
7317;DHT22;3699;51.462;6.696;2022-09-09T01:18:13;16.20;99.90
7317;DHT22;3699;51.462;6.696;2022-09-09T01:20:47;16.10;99.90
7317;DHT22;3699;51.462;6.696;2022-09-09T01:23:34;16.10;99.90
7317;DHT22;3699;51.462;6.696;2022-09-09T01:26:19;16.10;99.90
7317;DHT22;3699;51.462;6.696;2022-09-09T01:28:50;16.10;99.90
7317;DHT22;3699;51.462;6.696;2022-09-09T01:31:20;16.10;99.90
7317;DHT22;3699;51.462;6.696;2022-09-09T01:33:48;16.00;99.90
7317;DHT22;3699;51.462;6.696;2022-09-09T01:36:20;16.00;99.90
7317;DHT22;3699;51.462;6.696;2022-09-09T01:38:48;16.00;99.90
7317;DHT22;3699;51.462;6.696;2022-09-09T01:41:16;16.00;99.90
7317;DHT22;3699;51.462;6.696;2022-09-09T01:43:43;16.00;99.90
7317;DHT22;3699;51.462;6.696;2022-09-09T01:46:10;15.90;99.90
7317;DHT22;3699;51.462;6.696;2022-09-09T01:48:39;16.00;99.90
7317;DHT22;3699;51.462;6.696;2022-09-09T01:51:08;16.00;99.90
7317;DHT22;3699;51.462;6.696;2022-09-09T01:56:11;16.00;99.90
7317;DHT22;3699;51.462;6.696;2022-09-09T01:58:49;16.00;99.90
7317;DHT22;3699;51.462;6.696;2022-09-09T02:01:27;16.10;99.90
7317;DHT22;3699;51.462;6.696;2022-09-09T02:03:59;16.10;99.90
7317;DHT22;3699;51.462;6.696;2022-09-09T02:06:32;16.10;99.90
7317;DHT22;3699;51.462;6.696;2022-09-09T02:09:03;16.10;99.90
7317;DHT22;3699;51.462;6.696;2022-09-09T02:11:31;16.20;99.90
7317;DHT22;3699;51.462;6.696;2022-09-09T02:14:02;16.20;99.90
7317;DHT22;3699;51.462;6.696;2022-09-09T02:16:36;16.10;99.90
7317;DHT22;3699;51.462;6.696;2022-09-09T02:19:08;16.20;99.90
7317;DHT22;3699;51.462;6.696;2022-09-09T02:21:39;16.20;99.90
7317;DHT22;3699;51.462;6.696;2022-09-09T02:24:08;16.20;99.90
7317;DHT22;3699;51.462;6.696;2022-09-09T02:26:39;16.20;99.90
7317;DHT22;3699;51.462;6.696;2022-09-09T02:29:11;16.20;99.90
7317;DHT22;3699;51.462;6.696;2022-09-09T02:31:41;16.30;99.90
7317;DHT22;3699;51.462;6.696;2022-09-09T02:34:09;16.30;99.90
7317;DHT22;3699;51.462;6.696;2022-09-09T02:36:38;16.30;99.90
7317;DHT22;3699;51.462;6.696;2022-09-09T02:39:08;16.30;99.90
7317;DHT22;3699;51.462;6.696;2022-09-09T02:41:38;16.20;99.90
7317;DHT22;3699;51.462;6.696;2022-09-09T02:44:10;16.30;99.90
7317;DHT22;3699;51.462;6.696;2022-09-09T02:47:00;16.20;99.90
7317;DHT22;3699;51.462;6.696;2022-09-09T02:49:43;16.20;99.90
7317;DHT22;3699;51.462;6.696;2022-09-09T02:52:15;16.20;99.90
7317;DHT22;3699;51.462;6.696;2022-09-09T02:54:45;16.20;99.90
7317;DHT22;3699;51.462;6.696;2022-09-09T02:57:13;16.20;99.90
7317;DHT22;3699;51.462;6.696;2022-09-09T02:59:43;16.20;99.90
7317;DHT22;3699;51.462;6.696;2022-09-09T03:02:11;16.10;99.90
7317;DHT22;3699;51.462;6.696;2022-09-09T03:04:39;16.00;99.90
7317;DHT22;3699;51.462;6.696;2022-09-09T03:07:06;16.10;99.90
7317;DHT22;3699;51.462;6.696;2022-09-09T03:09:33;16.10;99.90
7317;DHT22;3699;51.462;6.696;2022-09-09T03:11:59;16.10;99.90
7317;DHT22;3699;51.462;6.696;2022-09-09T03:14:26;16.10;99.90
7317;DHT22;3699;51.462;6.696;2022-09-09T03:16:54;16.10;99.90
7317;DHT22;3699;51.462;6.696;2022-09-09T03:19:23;16.10;99.90
7317;DHT22;3699;51.462;6.696;2022-09-09T03:21:50;16.10;99.90
7317;DHT22;3699;51.462;6.696;2022-09-09T03:24:17;16.10;99.90
7317;DHT22;3699;51.462;6.696;2022-09-09T03:26:44;16.10;99.90
7317;DHT22;3699;51.462;6.696;2022-09-09T03:29:11;16.00;99.90
7317;DHT22;3699;51.462;6.696;2022-09-09T03:31:38;16.10;99.90
7317;DHT22;3699;51.462;6.696;2022-09-09T03:34:06;16.20;99.90
7317;DHT22;3699;51.462;6.696;2022-09-09T03:36:33;16.20;99.90
7317;DHT22;3699;51.462;6.696;2022-09-09T03:39:00;16.20;99.90
7317;DHT22;3699;51.462;6.696;2022-09-09T03:41:29;16.30;99.90
7317;DHT22;3699;51.462;6.696;2022-09-09T03:43:55;16.30;99.90
7317;DHT22;3699;51.462;6.696;2022-09-09T03:46:24;16.30;99.90
7317;DHT22;3699;51.462;6.696;2022-09-09T03:51:20;16.30;99.90
7317;DHT22;3699;51.462;6.696;2022-09-09T03:53:47;16.30;99.90
7317;DHT22;3699;51.462;6.696;2022-09-09T03:56:14;16.30;99.90
7317;DHT22;3699;51.462;6.696;2022-09-09T03:58:41;16.30;99.90
7317;DHT22;3699;51.462;6.696;2022-09-09T04:01:10;16.30;99.90
7317;DHT22;3699;51.462;6.696;2022-09-09T04:03:38;16.30;99.90
7317;DHT22;3699;51.462;6.696;2022-09-09T04:06:07;16.30;99.90
7317;DHT22;3699;51.462;6.696;2022-09-09T04:08:36;16.30;99.90
7317;DHT22;3699;51.462;6.696;2022-09-09T04:11:04;16.30;99.90
7317;DHT22;3699;51.462;6.696;2022-09-09T04:13:32;16.40;99.90
7317;DHT22;3699;51.462;6.696;2022-09-09T04:16:00;16.40;99.90
7317;DHT22;3699;51.462;6.696;2022-09-09T04:18:27;16.40;99.90
7317;DHT22;3699;51.462;6.696;2022-09-09T04:20:54;16.40;99.90
7317;DHT22;3699;51.462;6.696;2022-09-09T04:23:23;16.40;99.90
7317;DHT22;3699;51.462;6.696;2022-09-09T04:25:52;16.40;99.90
7317;DHT22;3699;51.462;6.696;2022-09-09T04:28:22;16.50;99.90
7317;DHT22;3699;51.462;6.696;2022-09-09T04:33:18;16.50;99.90
7317;DHT22;3699;51.462;6.696;2022-09-09T04:35:45;16.60;99.90
7317;DHT22;3699;51.462;6.696;2022-09-09T04:38:13;16.60;99.90
7317;DHT22;3699;51.462;6.696;2022-09-09T04:40:42;16.60;99.90
7317;DHT22;3699;51.462;6.696;2022-09-09T04:43:11;16.60;99.90
7317;DHT22;3699;51.462;6.696;2022-09-09T04:45:38;16.60;99.90
7317;DHT22;3699;51.462;6.696;2022-09-09T04:48:05;16.70;99.90
7317;DHT22;3699;51.462;6.696;2022-09-09T04:50:32;16.70;99.90
7317;DHT22;3699;51.462;6.696;2022-09-09T04:53:00;16.70;99.90
7317;DHT22;3699;51.462;6.696;2022-09-09T04:55:27;16.70;99.90
7317;DHT22;3699;51.462;6.696;2022-09-09T04:57:54;16.70;99.90
7317;DHT22;3699;51.462;6.696;2022-09-09T05:00:22;16.70;99.90
7317;DHT22;3699;51.462;6.696;2022-09-09T05:02:49;16.70;99.90
7317;DHT22;3699;51.462;6.696;2022-09-09T05:05:16;16.70;99.90
7317;DHT22;3699;51.462;6.696;2022-09-09T05:07:44;16.70;99.90
7317;DHT22;3699;51.462;6.696;2022-09-09T05:10:11;16.70;99.90
7317;DHT22;3699;51.462;6.696;2022-09-09T05:12:40;16.70;99.90
7317;DHT22;3699;51.462;6.696;2022-09-09T05:15:07;16.80;99.90
7317;DHT22;3699;51.462;6.696;2022-09-09T05:17:36;16.80;99.90
7317;DHT22;3699;51.462;6.696;2022-09-09T05:20:03;16.70;99.90
7317;DHT22;3699;51.462;6.696;2022-09-09T05:22:30;16.80;99.90
7317;DHT22;3699;51.462;6.696;2022-09-09T05:24:57;16.70;99.90
7317;DHT22;3699;51.462;6.696;2022-09-09T05:27:24;16.80;99.90
7317;DHT22;3699;51.462;6.696;2022-09-09T05:29:50;16.70;99.90
7317;DHT22;3699;51.462;6.696;2022-09-09T05:32:17;16.80;99.90
7317;DHT22;3699;51.462;6.696;2022-09-09T05:34:45;16.70;99.90
7317;DHT22;3699;51.462;6.696;2022-09-09T05:37:12;16.70;99.90
7317;DHT22;3699;51.462;6.696;2022-09-09T05:42:06;16.80;99.90
7317;DHT22;3699;51.462;6.696;2022-09-09T05:44:33;16.70;99.90
7317;DHT22;3699;51.462;6.696;2022-09-09T05:47:00;16.80;99.90
7317;DHT22;3699;51.462;6.696;2022-09-09T05:49:26;16.80;99.90
7317;DHT22;3699;51.462;6.696;2022-09-09T05:51:54;16.60;99.90
7317;DHT22;3699;51.462;6.696;2022-09-09T05:54:21;16.80;99.90
7317;DHT22;3699;51.462;6.696;2022-09-09T05:56:48;16.90;99.90
7317;DHT22;3699;51.462;6.696;2022-09-09T05:59:16;17.00;99.90
7317;DHT22;3699;51.462;6.696;2022-09-09T06:01:43;17.00;99.90
7317;DHT22;3699;51.462;6.696;2022-09-09T06:04:10;17.00;99.90
7317;DHT22;3699;51.462;6.696;2022-09-09T06:06:38;17.10;99.90
7317;DHT22;3699;51.462;6.696;2022-09-09T06:09:07;17.20;99.90
7317;DHT22;3699;51.462;6.696;2022-09-09T06:11:37;17.20;99.90
7317;DHT22;3699;51.462;6.696;2022-09-09T06:14:04;17.30;99.90
7317;DHT22;3699;51.462;6.696;2022-09-09T06:16:32;17.50;99.90
7317;DHT22;3699;51.462;6.696;2022-09-09T06:18:59;17.50;99.90
7317;DHT22;3699;51.462;6.696;2022-09-09T06:21:27;17.60;99.90
7317;DHT22;3699;51.462;6.696;2022-09-09T06:23:55;17.60;99.90
7317;DHT22;3699;51.462;6.696;2022-09-09T06:26:25;17.60;99.90
7317;DHT22;3699;51.462;6.696;2022-09-09T06:28:53;17.70;99.90
7317;DHT22;3699;51.462;6.696;2022-09-09T06:31:22;17.80;99.90
7317;DHT22;3699;51.462;6.696;2022-09-09T06:33:50;18.00;99.90
7317;DHT22;3699;51.462;6.696;2022-09-09T06:36:18;18.30;99.90
7317;DHT22;3699;51.462;6.696;2022-09-09T06:38:46;18.60;99.90
7317;DHT22;3699;51.462;6.696;2022-09-09T06:41:14;18.70;99.90
7317;DHT22;3699;51.462;6.696;2022-09-09T06:43:43;19.00;99.90
7317;DHT22;3699;51.462;6.696;2022-09-09T06:46:12;18.90;99.90
7317;DHT22;3699;51.462;6.696;2022-09-09T06:48:39;19.10;99.90
7317;DHT22;3699;51.462;6.696;2022-09-09T06:51:08;19.20;99.90
7317;DHT22;3699;51.462;6.696;2022-09-09T06:53:37;19.60;99.90
7317;DHT22;3699;51.462;6.696;2022-09-09T06:56:18;19.60;99.90
7317;DHT22;3699;51.462;6.696;2022-09-09T06:58:47;20.80;99.90
7317;DHT22;3699;51.462;6.696;2022-09-09T07:01:15;20.90;99.90
7317;DHT22;3699;51.462;6.696;2022-09-09T07:03:45;21.70;99.90
7317;DHT22;3699;51.462;6.696;2022-09-09T07:06:14;22.00;99.90
7317;DHT22;3699;51.462;6.696;2022-09-09T07:08:42;22.30;99.90
7317;DHT22;3699;51.462;6.696;2022-09-09T07:11:10;22.70;99.90
7317;DHT22;3699;51.462;6.696;2022-09-09T07:13:37;23.00;99.90
7317;DHT22;3699;51.462;6.696;2022-09-09T07:16:07;23.10;99.90
7317;DHT22;3699;51.462;6.696;2022-09-09T07:18:34;23.10;99.90
7317;DHT22;3699;51.462;6.696;2022-09-09T07:21:02;22.90;99.90
7317;DHT22;3699;51.462;6.696;2022-09-09T07:23:29;22.60;99.90
7317;DHT22;3699;51.462;6.696;2022-09-09T07:25:56;22.60;99.90
7317;DHT22;3699;51.462;6.696;2022-09-09T07:28:24;21.90;99.90
7317;DHT22;3699;51.462;6.696;2022-09-09T07:30:55;21.70;99.90
7317;DHT22;3699;51.462;6.696;2022-09-09T07:33:23;21.50;99.90
7317;DHT22;3699;51.462;6.696;2022-09-09T07:35:50;21.60;99.90
7317;DHT22;3699;51.462;6.696;2022-09-09T07:38:18;21.70;99.90
7317;DHT22;3699;51.462;6.696;2022-09-09T07:45:39;21.50;99.90
7317;DHT22;3699;51.462;6.696;2022-09-09T07:48:08;21.40;99.90
7317;DHT22;3699;51.462;6.696;2022-09-09T07:50:37;21.40;99.90
7317;DHT22;3699;51.462;6.696;2022-09-09T07:53:04;21.40;99.90
7317;DHT22;3699;51.462;6.696;2022-09-09T07:57:59;21.60;99.90
7317;DHT22;3699;51.462;6.696;2022-09-09T08:00:25;22.00;99.90
7317;DHT22;3699;51.462;6.696;2022-09-09T08:02:53;22.30;99.90
7317;DHT22;3699;51.462;6.696;2022-09-09T08:05:20;22.60;99.90
7317;DHT22;3699;51.462;6.696;2022-09-09T08:07:49;22.80;99.90
7317;DHT22;3699;51.462;6.696;2022-09-09T08:10:16;22.90;99.90
7317;DHT22;3699;51.462;6.696;2022-09-09T08:12:43;22.90;99.90
7317;DHT22;3699;51.462;6.696;2022-09-09T08:15:11;22.70;99.90
7317;DHT22;3699;51.462;6.696;2022-09-09T08:17:38;22.80;99.90
7317;DHT22;3699;51.462;6.696;2022-09-09T08:22:32;22.70;99.90
7317;DHT22;3699;51.462;6.696;2022-09-09T08:25:01;22.60;99.90
7317;DHT22;3699;51.462;6.696;2022-09-09T08:27:27;22.40;99.90
7317;DHT22;3699;51.462;6.696;2022-09-09T08:29:55;22.30;99.90
7317;DHT22;3699;51.462;6.696;2022-09-09T08:32:22;22.30;99.90
7317;DHT22;3699;51.462;6.696;2022-09-09T08:34:48;22.50;99.90
7317;DHT22;3699;51.462;6.696;2022-09-09T08:37:16;22.90;99.90
7317;DHT22;3699;51.462;6.696;2022-09-09T08:39:44;23.40;99.90
7317;DHT22;3699;51.462;6.696;2022-09-09T08:42:28;23.70;99.90
7317;DHT22;3699;51.462;6.696;2022-09-09T08:45:12;24.00;99.90
7317;DHT22;3699;51.462;6.696;2022-09-09T08:47:49;24.00;99.90
7317;DHT22;3699;51.462;6.696;2022-09-09T08:50:22;24.00;99.90
7317;DHT22;3699;51.462;6.696;2022-09-09T08:52:54;23.70;99.90
7317;DHT22;3699;51.462;6.696;2022-09-09T08:55:27;23.40;99.90
7317;DHT22;3699;51.462;6.696;2022-09-09T08:57:58;23.10;99.90
7317;DHT22;3699;51.462;6.696;2022-09-09T09:00:33;22.80;99.90
7317;DHT22;3699;51.462;6.696;2022-09-09T09:03:06;22.60;99.90
7317;DHT22;3699;51.462;6.696;2022-09-09T09:05:39;22.40;99.90
7317;DHT22;3699;51.462;6.696;2022-09-09T09:08:17;22.20;99.90
7317;DHT22;3699;51.462;6.696;2022-09-09T09:10:49;22.10;99.90
7317;DHT22;3699;51.462;6.696;2022-09-09T09:13:20;22.00;99.90
7317;DHT22;3699;51.462;6.696;2022-09-09T09:15:52;22.10;99.90
7317;DHT22;3699;51.462;6.696;2022-09-09T09:18:20;22.10;99.90
7317;DHT22;3699;51.462;6.696;2022-09-09T09:20:52;22.00;99.90
7317;DHT22;3699;51.462;6.696;2022-09-09T09:23:23;22.00;99.90
7317;DHT22;3699;51.462;6.696;2022-09-09T09:25:52;22.00;99.90
7317;DHT22;3699;51.462;6.696;2022-09-09T09:28:25;21.90;99.90
7317;DHT22;3699;51.462;6.696;2022-09-09T09:30:55;21.90;99.90
7317;DHT22;3699;51.462;6.696;2022-09-09T09:33:26;21.90;99.90
7317;DHT22;3699;51.462;6.696;2022-09-09T09:35:53;21.70;99.90
7317;DHT22;3699;51.462;6.696;2022-09-09T09:38:22;21.70;99.90
7317;DHT22;3699;51.462;6.696;2022-09-09T09:40:50;21.50;99.90
7317;DHT22;3699;51.462;6.696;2022-09-09T09:43:21;21.40;99.90
7317;DHT22;3699;51.462;6.696;2022-09-09T09:45:51;21.40;99.90
7317;DHT22;3699;51.462;6.696;2022-09-09T09:48:18;21.40;99.90
7317;DHT22;3699;51.462;6.696;2022-09-09T09:50:49;21.50;99.90
7317;DHT22;3699;51.462;6.696;2022-09-09T09:53:21;21.70;99.90
7317;DHT22;3699;51.462;6.696;2022-09-09T09:55:54;22.10;99.90
7317;DHT22;3699;51.462;6.696;2022-09-09T09:58:21;22.60;99.90
7317;DHT22;3699;51.462;6.696;2022-09-09T10:00:48;23.00;99.90
7317;DHT22;3699;51.462;6.696;2022-09-09T10:03:24;23.50;99.90
7317;DHT22;3699;51.462;6.696;2022-09-09T10:05:51;23.70;99.90
7317;DHT22;3699;51.462;6.696;2022-09-09T10:08:18;24.10;99.90
7317;DHT22;3699;51.462;6.696;2022-09-09T10:11:09;24.20;99.90
7317;DHT22;3699;51.462;6.696;2022-09-09T10:13:49;24.20;99.90
7317;DHT22;3699;51.462;6.696;2022-09-09T10:16:28;24.10;99.90
7317;DHT22;3699;51.462;6.696;2022-09-09T10:19:03;23.90;99.90
7317;DHT22;3699;51.462;6.696;2022-09-09T10:21:46;23.80;99.90
7317;DHT22;3699;51.462;6.696;2022-09-09T10:24:32;23.60;99.90
7317;DHT22;3699;51.462;6.696;2022-09-09T10:27:05;23.50;99.90
7317;DHT22;3699;51.462;6.696;2022-09-09T10:32:41;23.10;99.90
7317;DHT22;3699;51.462;6.696;2022-09-09T10:35:27;22.90;99.90
7317;DHT22;3699;51.462;6.696;2022-09-09T10:38:16;22.60;99.90
7317;DHT22;3699;51.462;6.696;2022-09-09T10:43:42;22.30;99.90
7317;DHT22;3699;51.462;6.696;2022-09-09T10:46:17;22.10;99.90
7317;DHT22;3699;51.462;6.696;2022-09-09T10:49:01;22.00;99.90
7317;DHT22;3699;51.462;6.696;2022-09-09T10:51:39;21.90;99.90
7317;DHT22;3699;51.462;6.696;2022-09-09T10:54:17;21.80;99.90
7317;DHT22;3699;51.462;6.696;2022-09-09T10:56:52;21.80;99.90
7317;DHT22;3699;51.462;6.696;2022-09-09T10:59:25;21.80;99.90
7317;DHT22;3699;51.462;6.696;2022-09-09T11:01:57;21.90;99.90
7317;DHT22;3699;51.462;6.696;2022-09-09T11:04:28;22.10;99.90
7317;DHT22;3699;51.462;6.696;2022-09-09T11:07:05;22.30;99.90
7317;DHT22;3699;51.462;6.696;2022-09-09T11:09:38;22.40;99.90
7317;DHT22;3699;51.462;6.696;2022-09-09T11:12:10;22.60;99.90
7317;DHT22;3699;51.462;6.696;2022-09-09T11:14:42;22.50;99.90
7317;DHT22;3699;51.462;6.696;2022-09-09T11:17:12;22.50;99.90
7317;DHT22;3699;51.462;6.696;2022-09-09T11:19:42;22.30;99.90
7317;DHT22;3699;51.462;6.696;2022-09-09T11:22:21;22.20;99.90
7317;DHT22;3699;51.462;6.696;2022-09-09T11:24:52;22.10;99.90
7317;DHT22;3699;51.462;6.696;2022-09-09T11:27:22;22.10;99.90
7317;DHT22;3699;51.462;6.696;2022-09-09T11:33:15;22.30;99.90
7317;DHT22;3699;51.462;6.696;2022-09-09T11:35:54;22.50;99.90
7317;DHT22;3699;51.462;6.696;2022-09-09T11:38:28;22.60;99.90
7317;DHT22;3699;51.462;6.696;2022-09-09T11:40:58;22.70;99.90
7317;DHT22;3699;51.462;6.696;2022-09-09T11:43:29;22.70;99.90
7317;DHT22;3699;51.462;6.696;2022-09-09T11:45:58;22.60;99.90
7317;DHT22;3699;51.462;6.696;2022-09-09T11:48:32;22.60;99.90
7317;DHT22;3699;51.462;6.696;2022-09-09T11:51:02;22.50;99.90
7317;DHT22;3699;51.462;6.696;2022-09-09T11:53:32;22.40;99.90
7317;DHT22;3699;51.462;6.696;2022-09-09T11:56:03;22.40;99.90
7317;DHT22;3699;51.462;6.696;2022-09-09T11:58:37;22.40;99.90
7317;DHT22;3699;51.462;6.696;2022-09-09T12:01:25;22.50;99.90
7317;DHT22;3699;51.462;6.696;2022-09-09T12:04:01;22.70;99.90
7317;DHT22;3699;51.462;6.696;2022-09-09T12:06:33;22.80;99.90
7317;DHT22;3699;51.462;6.696;2022-09-09T12:09:17;22.90;99.90
7317;DHT22;3699;51.462;6.696;2022-09-09T12:11:45;22.80;99.90
7317;DHT22;3699;51.462;6.696;2022-09-09T12:14:21;22.70;99.90
7317;DHT22;3699;51.462;6.696;2022-09-09T12:16:48;22.60;99.90
7317;DHT22;3699;51.462;6.696;2022-09-09T12:19:19;22.50;99.90
7317;DHT22;3699;51.462;6.696;2022-09-09T12:21:51;22.40;99.90
7317;DHT22;3699;51.462;6.696;2022-09-09T12:24:26;22.50;99.90
7317;DHT22;3699;51.462;6.696;2022-09-09T12:27:00;22.60;99.90
7317;DHT22;3699;51.462;6.696;2022-09-09T12:29:32;22.70;99.90
7317;DHT22;3699;51.462;6.696;2022-09-09T12:32:07;22.70;99.90
7317;DHT22;3699;51.462;6.696;2022-09-09T12:34:39;22.60;99.90
7317;DHT22;3699;51.462;6.696;2022-09-09T12:37:15;22.50;99.90
7317;DHT22;3699;51.462;6.696;2022-09-09T12:39:47;22.50;99.90
7317;DHT22;3699;51.462;6.696;2022-09-09T12:42:19;22.40;99.90
7317;DHT22;3699;51.462;6.696;2022-09-09T12:44:55;22.40;99.90
7317;DHT22;3699;51.462;6.696;2022-09-09T12:47:25;22.20;99.90
7317;DHT22;3699;51.462;6.696;2022-09-09T12:49:52;22.20;99.90
7317;DHT22;3699;51.462;6.696;2022-09-09T12:52:25;22.10;99.90
7317;DHT22;3699;51.462;6.696;2022-09-09T12:54:57;22.10;99.90
7317;DHT22;3699;51.462;6.696;2022-09-09T12:57:26;22.00;99.90
7317;DHT22;3699;51.462;6.696;2022-09-09T13:00:06;21.90;99.90
7317;DHT22;3699;51.462;6.696;2022-09-09T13:02:34;21.80;99.90
7317;DHT22;3699;51.462;6.696;2022-09-09T13:05:13;21.60;99.90
7317;DHT22;3699;51.462;6.696;2022-09-09T13:07:41;21.50;99.90
7317;DHT22;3699;51.462;6.696;2022-09-09T13:10:13;21.50;99.90
7317;DHT22;3699;51.462;6.696;2022-09-09T13:12:41;21.50;99.90
7317;DHT22;3699;51.462;6.696;2022-09-09T13:15:19;21.60;99.90
7317;DHT22;3699;51.462;6.696;2022-09-09T13:17:51;21.70;99.90
7317;DHT22;3699;51.462;6.696;2022-09-09T13:20:19;21.90;99.90
7317;DHT22;3699;51.462;6.696;2022-09-09T13:22:48;22.00;99.90
7317;DHT22;3699;51.462;6.696;2022-09-09T13:25:23;22.10;99.90
7317;DHT22;3699;51.462;6.696;2022-09-09T13:27:57;22.30;99.90
7317;DHT22;3699;51.462;6.696;2022-09-09T13:30:27;22.40;99.90
7317;DHT22;3699;51.462;6.696;2022-09-09T13:33:06;22.50;99.90
7317;DHT22;3699;51.462;6.696;2022-09-09T13:35:33;22.60;99.90
7317;DHT22;3699;51.462;6.696;2022-09-09T13:38:07;22.70;99.90
7317;DHT22;3699;51.462;6.696;2022-09-09T13:40:37;22.70;99.90
7317;DHT22;3699;51.462;6.696;2022-09-09T13:43:04;22.60;99.90
7317;DHT22;3699;51.462;6.696;2022-09-09T13:45:31;22.70;99.90
7317;DHT22;3699;51.462;6.696;2022-09-09T13:48:09;22.70;99.90
7317;DHT22;3699;51.462;6.696;2022-09-09T13:50:36;22.70;99.90
7317;DHT22;3699;51.462;6.696;2022-09-09T13:53:03;22.70;99.90
7317;DHT22;3699;51.462;6.696;2022-09-09T13:55:30;22.70;99.90
7317;DHT22;3699;51.462;6.696;2022-09-09T13:58:00;22.70;99.90
7317;DHT22;3699;51.462;6.696;2022-09-09T14:00:29;22.60;99.90
7317;DHT22;3699;51.462;6.696;2022-09-09T14:02:57;22.60;99.90
7317;DHT22;3699;51.462;6.696;2022-09-09T14:05:27;22.70;99.90
7317;DHT22;3699;51.462;6.696;2022-09-09T14:07:54;22.70;99.90
7317;DHT22;3699;51.462;6.696;2022-09-09T14:10:20;22.80;99.90
7317;DHT22;3699;51.462;6.696;2022-09-09T14:12:47;22.80;99.90
7317;DHT22;3699;51.462;6.696;2022-09-09T14:15:16;22.70;99.90
7317;DHT22;3699;51.462;6.696;2022-09-09T14:17:43;22.60;99.90
7317;DHT22;3699;51.462;6.696;2022-09-09T14:20:10;22.50;99.90
7317;DHT22;3699;51.462;6.696;2022-09-09T14:22:41;22.50;99.90
7317;DHT22;3699;51.462;6.696;2022-09-09T14:25:08;22.50;99.90
7317;DHT22;3699;51.462;6.696;2022-09-09T14:27:35;22.40;99.90
7317;DHT22;3699;51.462;6.696;2022-09-09T14:30:02;22.40;99.90
7317;DHT22;3699;51.462;6.696;2022-09-09T14:32:31;22.10;99.90
7317;DHT22;3699;51.462;6.696;2022-09-09T14:34:58;22.10;99.90
7317;DHT22;3699;51.462;6.696;2022-09-09T14:37:25;21.60;99.90
7317;DHT22;3699;51.462;6.696;2022-09-09T14:39:53;21.20;99.90
7317;DHT22;3699;51.462;6.696;2022-09-09T14:42:20;20.80;99.90
7317;DHT22;3699;51.462;6.696;2022-09-09T14:44:47;20.80;99.90
7317;DHT22;3699;51.462;6.696;2022-09-09T14:47:14;20.20;99.90
7317;DHT22;3699;51.462;6.696;2022-09-09T14:49:42;20.10;99.90
7317;DHT22;3699;51.462;6.696;2022-09-09T14:52:09;19.70;99.90
7317;DHT22;3699;51.462;6.696;2022-09-09T14:54:37;19.70;99.90
7317;DHT22;3699;51.462;6.696;2022-09-09T14:57:03;19.40;99.90
7317;DHT22;3699;51.462;6.696;2022-09-09T14:59:30;19.00;99.90
7317;DHT22;3699;51.462;6.696;2022-09-09T15:01:57;18.90;99.90
7317;DHT22;3699;51.462;6.696;2022-09-09T15:04:24;18.80;99.90
7317;DHT22;3699;51.462;6.696;2022-09-09T15:06:52;18.70;99.90
7317;DHT22;3699;51.462;6.696;2022-09-09T15:09:19;18.60;99.90
7317;DHT22;3699;51.462;6.696;2022-09-09T15:11:46;18.60;99.90
7317;DHT22;3699;51.462;6.696;2022-09-09T15:19:07;18.30;99.90
7317;DHT22;3699;51.462;6.696;2022-09-09T15:21:36;18.30;99.90
7317;DHT22;3699;51.462;6.696;2022-09-09T15:24:05;18.30;99.90
7317;DHT22;3699;51.462;6.696;2022-09-09T15:26:33;18.30;99.90
7317;DHT22;3699;51.462;6.696;2022-09-09T15:29:01;18.40;99.90
7317;DHT22;3699;51.462;6.696;2022-09-09T15:31:30;18.60;99.90
7317;DHT22;3699;51.462;6.696;2022-09-09T15:33:58;18.70;99.90
7317;DHT22;3699;51.462;6.696;2022-09-09T15:36:28;18.90;99.90
7317;DHT22;3699;51.462;6.696;2022-09-09T15:38:55;19.10;99.90
7317;DHT22;3699;51.462;6.696;2022-09-09T15:41:23;19.40;99.90
7317;DHT22;3699;51.462;6.696;2022-09-09T15:43:52;19.60;99.90
7317;DHT22;3699;51.462;6.696;2022-09-09T15:46:24;19.80;99.90
7317;DHT22;3699;51.462;6.696;2022-09-09T15:48:53;20.00;99.90
7317;DHT22;3699;51.462;6.696;2022-09-09T15:51:21;20.20;99.90
7317;DHT22;3699;51.462;6.696;2022-09-09T15:53:48;20.20;99.90
7317;DHT22;3699;51.462;6.696;2022-09-09T15:56:15;20.40;99.90
7317;DHT22;3699;51.462;6.696;2022-09-09T15:58:44;20.50;99.90
7317;DHT22;3699;51.462;6.696;2022-09-09T16:01:11;20.60;99.90
7317;DHT22;3699;51.462;6.696;2022-09-09T16:03:40;20.70;99.90
7317;DHT22;3699;51.462;6.696;2022-09-09T16:06:09;20.70;99.90
7317;DHT22;3699;51.462;6.696;2022-09-09T16:08:37;20.60;99.90
7317;DHT22;3699;51.462;6.696;2022-09-09T16:11:06;20.60;99.90
7317;DHT22;3699;51.462;6.696;2022-09-09T16:13:35;20.40;99.90
7317;DHT22;3699;51.462;6.696;2022-09-09T16:16:03;20.30;99.90
7317;DHT22;3699;51.462;6.696;2022-09-09T16:18:35;20.20;99.90
7317;DHT22;3699;51.462;6.696;2022-09-09T16:21:02;20.20;99.90
7317;DHT22;3699;51.462;6.696;2022-09-09T16:23:30;20.00;99.90
7317;DHT22;3699;51.462;6.696;2022-09-09T16:25:58;19.80;99.90
7317;DHT22;3699;51.462;6.696;2022-09-09T16:28:24;19.70;99.90
7317;DHT22;3699;51.462;6.696;2022-09-09T16:30:51;19.60;99.90
7317;DHT22;3699;51.462;6.696;2022-09-09T16:33:20;19.50;99.90
7317;DHT22;3699;51.462;6.696;2022-09-09T16:35:47;19.50;99.90
7317;DHT22;3699;51.462;6.696;2022-09-09T16:38:15;19.50;99.90
7317;DHT22;3699;51.462;6.696;2022-09-09T16:40:42;19.40;99.90
7317;DHT22;3699;51.462;6.696;2022-09-09T16:43:10;19.30;99.90
7317;DHT22;3699;51.462;6.696;2022-09-09T16:45:42;19.30;99.90
7317;DHT22;3699;51.462;6.696;2022-09-09T16:48:09;19.30;99.90
7317;DHT22;3699;51.462;6.696;2022-09-09T16:50:38;19.30;99.90
7317;DHT22;3699;51.462;6.696;2022-09-09T16:53:05;19.30;99.90
7317;DHT22;3699;51.462;6.696;2022-09-09T16:55:38;19.20;99.90